Terminal Aerodrome Forecast
Issued by NWS

Home | Current Version | Previous Version | Text Only | Print | Product List | Glossary On
Versions: 1 2 3 4 5 6 7 8 9 10 11 12 13 14 15 16 17 18 19 20 21 22
000
FTUS45 KBYZ 260958 AAC
TAFLVM
TAF AMD
KLVM 260958Z 2610/2706 28012KT P6SM VCTS BKN060CB
      TEMPO 2610/2612 -SHRA BKN040
     FM261200 27016G26KT P6SM VCSH SCT060 BKN080=

USA.gov is the U.S. government's official web portal to all federal, state and local government web resources and services.